KHNB 220156Z AUTO 17004KT 10SM CLR 24/14 A3014 RMK AO2 SLP203 T02440144